Time;durP1;ratioP1;P1;durP2;ratioP2;P2;SDS_P1;SDS_P2;PMS_P1;PMS_P2;Temp;Humidity;BMP_temperature;BMP_pressure;BME280_temperature;BME280_humidity;BME280_pressure;Samples;Min_cycle;Max_cycle;Signal;HPM_P1;HPM_P2
2022/06/11 00:00:09;;;;;;;;;;;14.90;99.90;;;;;;4592076;19;19926;-31
2022/06/11 00:02:01;;;;;;;;;;;14.90;99.90;;;;;;4590187;19;19915;-32
2022/06/11 00:03:32;;;;;;;;;;;14.80;99.90;;;;;;4590826;19;19990;-31
2022/06/11 00:05:03;;;;;;;;;;;14.80;99.90;;;;;;4591003;19;19919;-33
2022/06/11 00:06:36;;;;;;;;;;;14.90;99.90;;;;;;4590927;19;19914;-31
2022/06/11 00:08:07;;;;;;;;;;;14.90;99.90;;;;;;4590239;19;19919;-32
2022/06/11 00:09:38;;;;;;;;;;;14.90;99.90;;;;;;4590894;19;19979;-31
2022/06/11 00:11:10;;;;;;;;;;;14.80;99.90;;;;;;4591021;19;19932;-33
2022/06/11 00:12:41;;;;;;;;;;;14.80;99.90;;;;;;4590840;19;19982;-33
2022/06/11 00:14:12;;;;;;;;;;;14.80;99.90;;;;;;4590489;19;19918;-33
2022/06/11 00:15:43;;;;;;;;;;;14.80;99.90;;;;;;4590819;19;19923;-32
2022/06/11 00:17:14;;;;;;;;;;;14.80;99.90;;;;;;4590833;19;19922;-32
2022/06/11 00:18:45;;;;;;;;;;;14.70;99.90;;;;;;4591170;19;19911;-33
2022/06/11 00:20:16;;;;;;;;;;;14.70;99.90;;;;;;4590822;19;20000;-33
2022/06/11 00:21:48;;;;;;;;;;;14.70;99.90;;;;;;4592194;19;20313;-33
2022/06/11 00:23:19;;;;;;;;;;;14.70;99.90;;;;;;4592576;19;20001;-31
2022/06/11 00:24:50;;;;;;;;;;;14.70;99.90;;;;;;4592381;19;19925;-32
2022/06/11 00:26:22;;;;;;;;;;;14.70;99.90;;;;;;4592788;19;19923;-31
2022/06/11 00:27:53;;;;;;;;;;;14.70;99.90;;;;;;4590974;19;19927;-31
2022/06/11 00:29:24;;;;;;;;;;;14.70;99.90;;;;;;4592538;19;19938;-31
2022/06/11 00:30:55;;;;;;;;;;;14.70;99.90;;;;;;4592229;19;19918;-32
2022/06/11 00:32:26;;;;;;;;;;;14.70;99.90;;;;;;4592484;19;19978;-33
2022/06/11 00:33:58;;;;;;;;;;;14.70;99.90;;;;;;4591461;19;19923;-31
2022/06/11 00:35:29;;;;;;;;;;;14.70;99.90;;;;;;4592027;19;19914;-33
2022/06/11 00:37:00;;;;;;;;;;;14.60;99.90;;;;;;4591181;19;19936;-33
2022/06/11 00:38:31;;;;;;;;;;;14.60;99.90;;;;;;4591208;19;19974;-31
2022/06/11 00:40:03;;;;;;;;;;;14.60;99.90;;;;;;4591261;19;20420;-30
2022/06/11 00:41:35;;;;;;;;;;;14.60;99.90;;;;;;4591875;19;19919;-33
2022/06/11 00:43:06;;;;;;;;;;;14.60;99.90;;;;;;4591119;19;19918;-32
2022/06/11 00:44:37;;;;;;;;;;;14.60;99.90;;;;;;4591689;19;19922;-33
2022/06/11 00:46:27;;;;;;;;;;;14.60;99.90;;;;;;4592863;19;19915;-33
2022/06/11 00:47:58;;;;;;;;;;;14.60;99.90;;;;;;4591547;19;20369;-31
2022/06/11 00:49:31;;;;;;;;;;;14.60;99.90;;;;;;4592195;19;19915;-32
2022/06/11 00:51:04;;;;;;;;;;;14.50;99.90;;;;;;4592248;19;19926;-32
2022/06/11 00:52:36;;;;;;;;;;;14.50;99.90;;;;;;4591332;19;19915;-33
2022/06/11 00:54:09;;;;;;;;;;;14.50;99.90;;;;;;4590990;19;19915;-32
2022/06/11 00:55:39;;;;;;;;;;;14.50;99.90;;;;;;4590911;19;20245;-31
2022/06/11 00:57:11;;;;;;;;;;;14.50;99.90;;;;;;4591642;19;19931;-32
2022/06/11 00:58:45;;;;;;;;;;;14.50;99.90;;;;;;4590502;19;20332;-31
2022/06/11 01:00:18;;;;;;;;;;;14.50;99.90;;;;;;4590590;19;19940;-31
2022/06/11 01:01:50;;;;;;;;;;;14.50;99.90;;;;;;4590958;19;19923;-33
2022/06/11 01:03:25;;;;;;;;;;;14.40;99.90;;;;;;4591810;19;19914;-32
2022/06/11 01:05:00;;;;;;;;;;;14.40;99.90;;;;;;4591725;19;20371;-32
2022/06/11 01:06:34;;;;;;;;;;;14.40;99.90;;;;;;4591586;19;19932;-32
2022/06/11 01:08:05;;;;;;;;;;;14.40;99.90;;;;;;4591361;19;20439;-32
2022/06/11 01:09:39;;;;;;;;;;;14.50;99.90;;;;;;4591971;19;19919;-33
2022/06/11 01:11:17;;;;;;;;;;;14.40;99.90;;;;;;4591082;19;19922;-33
2022/06/11 01:13:11;;;;;;;;;;;14.40;99.90;;;;;;4589221;19;20279;-33
2022/06/11 01:14:45;;;;;;;;;;;14.40;99.90;;;;;;4589349;19;19911;-33
2022/06/11 01:16:37;;;;;;;;;;;14.40;99.90;;;;;;4589549;19;20016;-33
2022/06/11 01:18:23;;;;;;;;;;;14.30;99.90;;;;;;4588743;19;19922;-33
2022/06/11 01:19:54;;;;;;;;;;;14.30;99.90;;;;;;4589060;19;19911;-31
2022/06/11 01:21:25;;;;;;;;;;;14.30;99.90;;;;;;4589415;19;19919;-32
2022/06/11 01:23:15;;;;;;;;;;;14.20;99.90;;;;;;4589162;19;19940;-32
2022/06/11 01:24:52;;;;;;;;;;;14.30;99.90;;;;;;4589104;19;19966;-31
2022/06/11 01:26:42;;;;;;;;;;;14.30;99.90;;;;;;4588987;19;19948;-33
2022/06/11 01:28:19;;;;;;;;;;;14.20;99.90;;;;;;4588605;19;19915;-33
2022/06/11 01:29:54;;;;;;;;;;;14.30;99.90;;;;;;4589739;19;19922;-33
2022/06/11 01:31:26;;;;;;;;;;;14.20;99.90;;;;;;4588856;19;19919;-31
2022/06/11 01:33:11;;;;;;;;;;;14.30;99.90;;;;;;4588961;19;19919;-32
2022/06/11 01:34:42;;;;;;;;;;;14.20;99.90;;;;;;4589042;19;20023;-33
2022/06/11 01:36:43;;;;;;;;;;;14.20;99.90;;;;;;4589705;19;19919;-33
2022/06/11 01:38:27;;;;;;;;;;;14.20;99.90;;;;;;4588884;19;19915;-33
2022/06/11 01:40:00;;;;;;;;;;;14.20;99.90;;;;;;4588829;19;19911;-31
2022/06/11 01:41:49;;;;;;;;;;;14.20;99.90;;;;;;4588061;19;19911;-31
2022/06/11 01:43:22;;;;;;;;;;;14.10;99.90;;;;;;4588817;19;19914;-31
2022/06/11 01:45:13;;;;;;;;;;;14.10;99.90;;;;;;4588767;19;19923;-31
2022/06/11 01:46:46;;;;;;;;;;;14.20;99.90;;;;;;4589256;19;19915;-33
2022/06/11 01:48:19;;;;;;;;;;;14.20;99.90;;;;;;4587837;19;19911;-33
2022/06/11 01:49:50;;;;;;;;;;;14.10;99.90;;;;;;4588727;19;19944;-33
2022/06/11 01:51:24;;;;;;;;;;;14.20;99.90;;;;;;4588750;19;20424;-31
2022/06/11 01:52:59;;;;;;;;;;;14.10;99.90;;;;;;4591059;19;19930;-34
2022/06/11 01:54:36;;;;;;;;;;;14.10;99.90;;;;;;4590865;19;20314;-33
2022/06/11 01:56:12;;;;;;;;;;;14.10;99.90;;;;;;4589851;19;19910;-32
2022/06/11 01:58:03;;;;;;;;;;;14.10;99.90;;;;;;4589944;19;19923;-31
2022/06/11 01:59:52;;;;;;;;;;;14.10;99.90;;;;;;4589445;19;19944;-33
2022/06/11 02:01:42;;;;;;;;;;;14.10;99.90;;;;;;4591171;19;20339;-33
2022/06/11 02:03:19;;;;;;;;;;;14.10;99.90;;;;;;4591120;19;20277;-31
2022/06/11 02:05:10;;;;;;;;;;;14.10;99.90;;;;;;4590681;19;19915;-33
2022/06/11 02:07:10;;;;;;;;;;;14.10;99.90;;;;;;4588323;19;19918;-32
2022/06/11 02:08:41;;;;;;;;;;;14.10;99.90;;;;;;4587630;19;19918;-33
2022/06/11 02:10:23;;;;;;;;;;;14.10;99.90;;;;;;4588557;19;19970;-33
2022/06/11 02:11:57;;;;;;;;;;;14.00;99.90;;;;;;4588471;19;19918;-32
2022/06/11 02:13:47;;;;;;;;;;;14.10;99.90;;;;;;4588314;19;20289;-33
2022/06/11 02:15:27;;;;;;;;;;;14.00;99.90;;;;;;4588513;19;19942;-32
2022/06/11 02:16:58;;;;;;;;;;;14.10;99.90;;;;;;4588271;19;20349;-33
2022/06/11 02:18:29;;;;;;;;;;;14.00;99.90;;;;;;4588437;19;20101;-33
2022/06/11 02:20:06;;;;;;;;;;;14.00;99.90;;;;;;4588418;19;20464;-33
2022/06/11 02:21:38;;;;;;;;;;;14.00;99.90;;;;;;4588654;19;19915;-32
2022/06/11 02:23:13;;;;;;;;;;;14.00;99.90;;;;;;4588318;19;20341;-31
2022/06/11 02:24:49;;;;;;;;;;;14.00;99.90;;;;;;4589892;19;19911;-31
2022/06/11 02:26:30;;;;;;;;;;;14.00;99.90;;;;;;4592733;19;19910;-31
2022/06/11 02:28:02;;;;;;;;;;;14.00;99.90;;;;;;4592758;19;19911;-31
2022/06/11 02:29:33;;;;;;;;;;;14.00;99.90;;;;;;4592647;19;19915;-32
2022/06/11 02:31:05;;;;;;;;;;;13.90;99.90;;;;;;4593060;19;19911;-31
2022/06/11 02:32:36;;;;;;;;;;;13.90;99.90;;;;;;4592999;19;19935;-32
2022/06/11 02:34:08;;;;;;;;;;;13.90;99.90;;;;;;4592796;19;19918;-32
2022/06/11 02:35:40;;;;;;;;;;;13.90;99.90;;;;;;4592611;19;19989;-30
2022/06/11 02:37:20;;;;;;;;;;;13.90;99.90;;;;;;4592989;19;19932;-33
2022/06/11 02:38:51;;;;;;;;;;;13.90;99.90;;;;;;4592674;19;19919;-33
2022/06/11 02:40:28;;;;;;;;;;;13.90;99.90;;;;;;4592479;19;19919;-30
2022/06/11 02:42:00;;;;;;;;;;;13.80;99.90;;;;;;4592694;19;20352;-32
2022/06/11 02:43:31;;;;;;;;;;;13.80;99.90;;;;;;4592570;19;19941;-33
2022/06/11 02:45:03;;;;;;;;;;;13.80;99.90;;;;;;4593006;19;19918;-33
2022/06/11 02:46:43;;;;;;;;;;;13.90;99.90;;;;;;4594270;19;19939;-30
2022/06/11 02:48:14;;;;;;;;;;;13.90;99.90;;;;;;4593086;19;19987;-32
2022/06/11 02:49:45;;;;;;;;;;;13.90;99.90;;;;;;4594917;19;19914;-33
2022/06/11 02:51:17;;;;;;;;;;;13.80;99.90;;;;;;4595147;19;19918;-33
2022/06/11 02:52:48;;;;;;;;;;;13.90;99.90;;;;;;4594692;19;19951;-31
2022/06/11 02:54:19;;;;;;;;;;;13.90;99.90;;;;;;4594750;19;20264;-30
2022/06/11 02:55:50;;;;;;;;;;;13.90;99.90;;;;;;4594985;19;20315;-33
2022/06/11 02:57:23;;;;;;;;;;;13.90;99.90;;;;;;4594440;19;19923;-33
2022/06/11 02:58:54;;;;;;;;;;;13.90;99.90;;;;;;4593987;19;19992;-31
2022/06/11 03:00:27;;;;;;;;;;;13.90;99.90;;;;;;4592837;19;19947;-32
2022/06/11 03:01:58;;;;;;;;;;;13.90;99.90;;;;;;4594905;19;19911;-31
2022/06/11 03:03:29;;;;;;;;;;;13.90;99.90;;;;;;4593736;19;19917;-32
2022/06/11 03:05:00;;;;;;;;;;;13.90;99.90;;;;;;4593827;19;20263;-32
2022/06/11 03:06:31;;;;;;;;;;;13.90;99.90;;;;;;4594599;19;19922;-33
2022/06/11 03:08:03;;;;;;;;;;;13.90;99.90;;;;;;4594513;19;19919;-32
2022/06/11 03:09:34;;;;;;;;;;;14.00;99.90;;;;;;4594914;19;19915;-31
2022/06/11 03:11:05;;;;;;;;;;;13.90;99.90;;;;;;4594072;19;19983;-32
2022/06/11 03:12:36;;;;;;;;;;;13.90;99.90;;;;;;4591595;19;19931;-30
2022/06/11 03:14:07;;;;;;;;;;;14.00;99.90;;;;;;4593818;19;19915;-33
2022/06/11 03:15:38;;;;;;;;;;;13.90;99.90;;;;;;4593978;19;19919;-30
2022/06/11 03:17:10;;;;;;;;;;;13.90;99.90;;;;;;4593153;19;19922;-31
2022/06/11 03:18:41;;;;;;;;;;;13.90;99.90;;;;;;4593543;19;19914;-33
2022/06/11 03:20:12;;;;;;;;;;;13.90;99.90;;;;;;4593001;19;20241;-31
2022/06/11 03:21:43;;;;;;;;;;;13.90;99.90;;;;;;4593595;19;19915;-31
2022/06/11 03:23:14;;;;;;;;;;;13.90;99.90;;;;;;4594250;19;19930;-33
2022/06/11 03:24:45;;;;;;;;;;;13.90;99.90;;;;;;4594687;19;19922;-33
2022/06/11 03:26:16;;;;;;;;;;;13.90;99.90;;;;;;4593954;19;19915;-30
2022/06/11 03:27:47;;;;;;;;;;;13.90;99.90;;;;;;4593861;19;20347;-32
2022/06/11 03:29:18;;;;;;;;;;;13.90;99.90;;;;;;4592589;19;19915;-33
2022/06/11 03:30:50;;;;;;;;;;;13.90;99.90;;;;;;4593963;19;19919;-31
2022/06/11 03:32:21;;;;;;;;;;;14.00;99.90;;;;;;4593572;19;19922;-31
2022/06/11 03:33:51;;;;;;;;;;;14.00;99.90;;;;;;4593929;19;19949;-32
2022/06/11 03:35:23;;;;;;;;;;;14.00;99.90;;;;;;4592680;19;19970;-31
2022/06/11 03:36:55;;;;;;;;;;;14.00;99.90;;;;;;4592529;19;19914;-32
2022/06/11 03:38:26;;;;;;;;;;;14.00;99.90;;;;;;4593562;19;19923;-32
2022/06/11 03:39:57;;;;;;;;;;;14.00;99.90;;;;;;4593855;19;19919;-30
2022/06/11 03:41:28;;;;;;;;;;;14.00;99.90;;;;;;4594094;19;19914;-32
2022/06/11 03:42:59;;;;;;;;;;;14.10;99.90;;;;;;4593838;19;19930;-31
2022/06/11 03:44:30;;;;;;;;;;;14.10;99.90;;;;;;4593481;19;19940;-32
2022/06/11 03:46:01;;;;;;;;;;;14.10;99.90;;;;;;4593754;19;19915;-32
2022/06/11 03:47:33;;;;;;;;;;;14.20;99.90;;;;;;4593462;19;19943;-30
2022/06/11 03:49:05;;;;;;;;;;;14.10;99.90;;;;;;4592572;19;20265;-31
2022/06/11 03:50:36;;;;;;;;;;;14.20;99.90;;;;;;4592268;19;19923;-32
2022/06/11 03:52:09;;;;;;;;;;;14.20;99.90;;;;;;4592601;19;19990;-32
2022/06/11 03:53:41;;;;;;;;;;;14.20;99.90;;;;;;4593162;19;20346;-31
2022/06/11 03:55:12;;;;;;;;;;;14.20;99.90;;;;;;4592924;19;19967;-30
2022/06/11 03:56:43;;;;;;;;;;;14.20;99.90;;;;;;4593380;19;19922;-31
2022/06/11 03:58:14;;;;;;;;;;;14.20;99.90;;;;;;4593055;19;19925;-31
2022/06/11 03:59:45;;;;;;;;;;;14.20;99.90;;;;;;4591990;19;19932;-31
2022/06/11 04:01:16;;;;;;;;;;;14.30;99.90;;;;;;4592855;19;19907;-31
2022/06/11 04:02:48;;;;;;;;;;;14.30;99.90;;;;;;4592783;19;19918;-31
2022/06/11 04:04:19;;;;;;;;;;;14.30;99.90;;;;;;4593926;19;19915;-33
2022/06/11 04:05:52;;;;;;;;;;;14.30;99.90;;;;;;4593255;19;19978;-32
2022/06/11 04:07:23;;;;;;;;;;;14.40;99.90;;;;;;4591981;19;19976;-33
2022/06/11 04:08:53;;;;;;;;;;;14.30;99.90;;;;;;4591559;19;19930;-33
2022/06/11 04:10:24;;;;;;;;;;;14.40;99.90;;;;;;4593245;19;19921;-32
2022/06/11 04:11:56;;;;;;;;;;;14.40;99.90;;;;;;4592745;19;20382;-31
2022/06/11 04:13:27;;;;;;;;;;;14.40;99.90;;;;;;4593191;19;19935;-33
2022/06/11 04:14:58;;;;;;;;;;;14.40;99.90;;;;;;4592064;19;19923;-32
2022/06/11 04:16:36;;;;;;;;;;;14.40;99.90;;;;;;4593156;19;19931;-32
2022/06/11 04:18:07;;;;;;;;;;;14.40;99.90;;;;;;4591682;19;19919;-32
2022/06/11 04:19:39;;;;;;;;;;;14.50;99.90;;;;;;4592472;19;19915;-31
2022/06/11 04:21:10;;;;;;;;;;;14.50;99.90;;;;;;4593210;19;19971;-32
2022/06/11 04:22:41;;;;;;;;;;;14.50;99.90;;;;;;4592128;19;19915;-31
2022/06/11 04:24:13;;;;;;;;;;;14.50;99.90;;;;;;4591265;19;20297;-33
2022/06/11 04:25:45;;;;;;;;;;;14.50;99.90;;;;;;4591850;19;19918;-30
2022/06/11 04:27:16;;;;;;;;;;;14.50;99.90;;;;;;4591778;19;19919;-31
2022/06/11 04:28:47;;;;;;;;;;;14.60;99.90;;;;;;4591693;19;19932;-31
2022/06/11 04:30:22;;;;;;;;;;;14.60;99.90;;;;;;4592622;19;19979;-30
2022/06/11 04:31:53;;;;;;;;;;;14.60;99.90;;;;;;4592522;19;19915;-32
2022/06/11 04:33:24;;;;;;;;;;;14.60;99.90;;;;;;4592666;19;19910;-33
2022/06/11 04:34:55;;;;;;;;;;;14.60;99.90;;;;;;4592433;19;19925;-32
2022/06/11 04:36:27;;;;;;;;;;;14.60;99.90;;;;;;4592608;19;19923;-33
2022/06/11 04:37:58;;;;;;;;;;;14.70;99.90;;;;;;4592449;19;19988;-34
2022/06/11 04:39:30;;;;;;;;;;;14.70;99.90;;;;;;4592710;19;20350;-31
2022/06/11 04:41:01;;;;;;;;;;;14.70;99.90;;;;;;4591083;19;19914;-32
2022/06/11 04:42:32;;;;;;;;;;;14.70;99.90;;;;;;4591288;19;19922;-33
2022/06/11 04:44:03;;;;;;;;;;;14.70;99.90;;;;;;4592048;19;19911;-32
2022/06/11 04:45:34;;;;;;;;;;;14.80;99.90;;;;;;4592613;19;19918;-33
2022/06/11 04:47:05;;;;;;;;;;;14.80;99.90;;;;;;4591777;19;19947;-31
2022/06/11 04:48:36;;;;;;;;;;;14.80;99.90;;;;;;4589551;19;20007;-32
2022/06/11 04:50:07;;;;;;;;;;;14.80;99.90;;;;;;4590984;19;20365;-32
2022/06/11 04:51:38;;;;;;;;;;;14.90;99.90;;;;;;4592249;19;20349;-32
2022/06/11 04:53:09;;;;;;;;;;;14.90;99.90;;;;;;4592038;19;19918;-32
2022/06/11 04:54:40;;;;;;;;;;;14.90;99.90;;;;;;4591987;19;19991;-31
2022/06/11 04:56:13;;;;;;;;;;;14.90;99.90;;;;;;4592624;19;20260;-32
2022/06/11 04:57:44;;;;;;;;;;;14.90;99.90;;;;;;4591700;19;19926;-33
2022/06/11 04:59:15;;;;;;;;;;;15.00;99.90;;;;;;4590652;19;19939;-32
2022/06/11 05:00:46;;;;;;;;;;;15.00;99.90;;;;;;4591292;19;19986;-31
2022/06/11 05:02:17;;;;;;;;;;;15.00;99.90;;;;;;4592326;19;19915;-32
2022/06/11 05:03:48;;;;;;;;;;;15.00;99.90;;;;;;4591497;19;19962;-32
2022/06/11 05:05:19;;;;;;;;;;;15.00;99.90;;;;;;4593000;19;19915;-32
2022/06/11 05:06:50;;;;;;;;;;;15.10;99.90;;;;;;4591919;19;19979;-31
2022/06/11 05:08:21;;;;;;;;;;;15.10;99.90;;;;;;4591010;19;19922;-31
2022/06/11 05:09:52;;;;;;;;;;;15.10;99.90;;;;;;4590591;19;19923;-31
2022/06/11 05:11:23;;;;;;;;;;;15.20;99.90;;;;;;4590458;19;20261;-31
2022/06/11 05:12:54;;;;;;;;;;;15.20;99.90;;;;;;4590326;19;20271;-31
2022/06/11 05:14:25;;;;;;;;;;;15.20;99.90;;;;;;4588783;19;19914;-31
2022/06/11 05:15:58;;;;;;;;;;;15.30;99.90;;;;;;4591979;19;19926;-31
2022/06/11 05:17:29;;;;;;;;;;;15.30;99.90;;;;;;4590449;19;19929;-31
2022/06/11 05:19:00;;;;;;;;;;;15.30;99.90;;;;;;4591628;19;19987;-32
2022/06/11 05:20:31;;;;;;;;;;;15.30;99.90;;;;;;4591195;19;19915;-31
2022/06/11 05:22:02;;;;;;;;;;;15.40;99.90;;;;;;4590222;19;20326;-31
2022/06/11 05:23:33;;;;;;;;;;;15.40;99.90;;;;;;4590317;19;19982;-32
2022/06/11 05:25:04;;;;;;;;;;;15.40;99.90;;;;;;4592440;19;19919;-31
2022/06/11 05:26:39;;;;;;;;;;;15.40;99.90;;;;;;4590782;19;20249;-32
2022/06/11 05:28:14;;;;;;;;;;;15.40;99.90;;;;;;4588528;19;19919;-31
2022/06/11 05:29:48;;;;;;;;;;;15.50;99.90;;;;;;4590434;19;20333;-31
2022/06/11 05:31:19;;;;;;;;;;;15.50;99.90;;;;;;4591749;19;19919;-30
2022/06/11 05:32:50;;;;;;;;;;;15.50;99.90;;;;;;4591050;19;20444;-31
2022/06/11 05:34:21;;;;;;;;;;;15.60;99.90;;;;;;4592087;19;19927;-31
2022/06/11 05:35:52;;;;;;;;;;;15.50;99.90;;;;;;4591049;19;19919;-31
2022/06/11 05:37:23;;;;;;;;;;;15.60;99.90;;;;;;4590766;19;19946;-32
2022/06/11 05:38:54;;;;;;;;;;;15.60;99.90;;;;;;4591522;19;19927;-32
2022/06/11 05:40:27;;;;;;;;;;;15.70;99.90;;;;;;4591594;19;20443;-33
2022/06/11 05:41:58;;;;;;;;;;;15.70;99.90;;;;;;4591681;19;19919;-32
2022/06/11 05:43:30;;;;;;;;;;;15.70;99.90;;;;;;4590650;19;20254;-31
2022/06/11 05:45:01;;;;;;;;;;;15.70;99.90;;;;;;4590331;19;19929;-34
2022/06/11 05:46:32;;;;;;;;;;;15.80;99.90;;;;;;4589503;19;19923;-31
2022/06/11 05:48:03;;;;;;;;;;;15.80;99.90;;;;;;4588894;19;19915;-32
2022/06/11 05:49:37;;;;;;;;;;;15.80;99.90;;;;;;4588075;19;19943;-31
2022/06/11 05:51:10;;;;;;;;;;;15.90;99.90;;;;;;4588291;19;19991;-32
2022/06/11 05:52:45;;;;;;;;;;;15.90;99.90;;;;;;4592513;19;19966;-31
2022/06/11 05:54:17;;;;;;;;;;;16.00;99.90;;;;;;4591567;19;19915;-32
2022/06/11 05:55:48;;;;;;;;;;;16.00;99.90;;;;;;4590754;19;19933;-32
2022/06/11 05:57:21;;;;;;;;;;;16.00;99.90;;;;;;4589777;19;19930;-33
2022/06/11 05:58:54;;;;;;;;;;;16.00;99.90;;;;;;4590005;19;19936;-32
2022/06/11 06:00:25;;;;;;;;;;;16.00;99.90;;;;;;4588018;19;19923;-32
2022/06/11 06:01:56;;;;;;;;;;;16.00;99.90;;;;;;4590208;19;19986;-32
2022/06/11 06:03:27;;;;;;;;;;;16.10;99.90;;;;;;4589765;19;19918;-31
2022/06/11 06:04:58;;;;;;;;;;;16.10;99.90;;;;;;4590448;19;20346;-32
2022/06/11 06:06:29;;;;;;;;;;;16.10;99.90;;;;;;4590456;19;19922;-31
2022/06/11 06:08:00;;;;;;;;;;;16.10;99.90;;;;;;4590015;19;19922;-31
2022/06/11 06:09:31;;;;;;;;;;;16.10;99.90;;;;;;4589561;19;19971;-31
2022/06/11 06:11:02;;;;;;;;;;;16.10;99.90;;;;;;4589957;19;19919;-31
2022/06/11 06:12:33;;;;;;;;;;;16.20;99.90;;;;;;4590513;19;20298;-32
2022/06/11 06:14:05;;;;;;;;;;;16.20;99.90;;;;;;4590788;19;19915;-32
2022/06/11 06:15:37;;;;;;;;;;;16.20;99.90;;;;;;4590787;19;19919;-32
2022/06/11 06:17:08;;;;;;;;;;;16.30;99.90;;;;;;4592013;19;19919;-33
2022/06/11 06:18:39;;;;;;;;;;;16.30;99.90;;;;;;4592366;19;19940;-31
2022/06/11 06:20:11;;;;;;;;;;;16.30;99.90;;;;;;4591242;19;19982;-30
2022/06/11 06:21:42;;;;;;;;;;;16.40;99.90;;;;;;4592237;19;19974;-32
2022/06/11 06:23:13;;;;;;;;;;;16.40;99.90;;;;;;4590587;19;20230;-31
2022/06/11 06:24:47;;;;;;;;;;;16.40;99.90;;;;;;4590972;19;19927;-32
2022/06/11 06:26:18;;;;;;;;;;;16.40;99.90;;;;;;4590826;19;19919;-33
2022/06/11 06:27:49;;;;;;;;;;;16.40;99.90;;;;;;4589864;19;19917;-31
2022/06/11 06:29:20;;;;;;;;;;;16.40;99.90;;;;;;4589875;19;19911;-32
2022/06/11 06:30:51;;;;;;;;;;;16.50;99.90;;;;;;4592113;19;20270;-33
2022/06/11 06:32:23;;;;;;;;;;;16.50;99.90;;;;;;4590277;19;19940;-32
2022/06/11 06:33:58;;;;;;;;;;;16.50;99.90;;;;;;4590148;19;20264;-31
2022/06/11 06:35:29;;;;;;;;;;;16.60;99.90;;;;;;4589889;19;19927;-32
2022/06/11 06:37:00;;;;;;;;;;;16.60;99.90;;;;;;4590474;19;19915;-32
2022/06/11 06:38:31;;;;;;;;;;;16.60;99.90;;;;;;4591565;19;19927;-32
2022/06/11 06:40:02;;;;;;;;;;;16.60;99.90;;;;;;4589805;19;19937;-32
2022/06/11 06:41:33;;;;;;;;;;;16.60;99.90;;;;;;4590065;19;20358;-32
2022/06/11 06:43:04;;;;;;;;;;;16.60;99.90;;;;;;4590276;19;19926;-33
2022/06/11 06:44:35;;;;;;;;;;;16.60;99.90;;;;;;4587940;19;20256;-31
2022/06/11 06:46:06;;;;;;;;;;;16.60;99.90;;;;;;4589692;19;19918;-32
2022/06/11 06:47:37;;;;;;;;;;;16.70;99.90;;;;;;4589097;19;19915;-32
2022/06/11 06:49:08;;;;;;;;;;;16.60;99.90;;;;;;4589111;19;19921;-32
2022/06/11 06:50:40;;;;;;;;;;;16.70;99.90;;;;;;4590381;19;19979;-33
2022/06/11 06:52:11;;;;;;;;;;;16.70;99.90;;;;;;4589727;19;19919;-32
2022/06/11 06:53:42;;;;;;;;;;;16.60;99.90;;;;;;4590080;19;19919;-33
2022/06/11 06:55:13;;;;;;;;;;;16.70;99.90;;;;;;4590287;19;20022;-32
2022/06/11 06:56:44;;;;;;;;;;;16.70;99.90;;;;;;4590008;19;19915;-32
2022/06/11 06:58:15;;;;;;;;;;;16.70;99.90;;;;;;4589928;19;19988;-32
2022/06/11 06:59:46;;;;;;;;;;;16.70;99.90;;;;;;4589223;19;19915;-33
2022/06/11 07:01:17;;;;;;;;;;;16.70;99.90;;;;;;4592564;19;19929;-32
2022/06/11 07:02:49;;;;;;;;;;;16.80;99.90;;;;;;4589664;19;19919;-33
2022/06/11 07:04:20;;;;;;;;;;;16.80;99.90;;;;;;4589873;19;19939;-32
2022/06/11 07:05:51;;;;;;;;;;;16.80;99.90;;;;;;4590131;19;20362;-32
2022/06/11 07:07:22;;;;;;;;;;;16.90;99.90;;;;;;4589994;19;19971;-31
2022/06/11 07:08:53;;;;;;;;;;;16.90;99.90;;;;;;4587638;19;19996;-32
2022/06/11 07:10:25;;;;;;;;;;;16.90;99.90;;;;;;4588602;19;20004;-32
2022/06/11 07:11:55;;;;;;;;;;;16.90;99.90;;;;;;4591410;19;19911;-32
2022/06/11 07:13:26;;;;;;;;;;;17.00;99.90;;;;;;4594304;19;19935;-31
2022/06/11 07:14:58;;;;;;;;;;;17.00;99.90;;;;;;4594002;19;19966;-31
2022/06/11 07:16:31;;;;;;;;;;;17.00;99.90;;;;;;4592741;19;20298;-32
2022/06/11 07:18:07;;;;;;;;;;;17.00;99.90;;;;;;4592613;19;19927;-31
2022/06/11 07:19:43;;;;;;;;;;;17.00;99.90;;;;;;4594295;19;20310;-31
2022/06/11 07:21:18;;;;;;;;;;;17.00;99.90;;;;;;4592734;19;19925;-33
2022/06/11 07:22:48;;;;;;;;;;;17.10;99.90;;;;;;4594001;19;19922;-32
2022/06/11 07:24:21;;;;;;;;;;;17.10;99.90;;;;;;4592633;19;19915;-31
2022/06/11 07:25:54;;;;;;;;;;;17.10;99.90;;;;;;4594137;19;19915;-32
2022/06/11 07:27:26;;;;;;;;;;;17.10;99.90;;;;;;4592209;19;19919;-31
2022/06/11 07:28:58;;;;;;;;;;;17.20;99.90;;;;;;4591223;19;19926;-31
2022/06/11 07:30:29;;;;;;;;;;;17.30;99.90;;;;;;4592797;19;19910;-32
2022/06/11 07:32:01;;;;;;;;;;;17.20;99.90;;;;;;4593731;19;19914;-32
2022/06/11 07:33:32;;;;;;;;;;;17.30;99.90;;;;;;4592391;19;19919;-32
2022/06/11 07:35:03;;;;;;;;;;;17.30;99.90;;;;;;4592265;19;20255;-31
2022/06/11 07:36:34;;;;;;;;;;;17.30;99.90;;;;;;4593995;19;19925;-32
2022/06/11 07:38:05;;;;;;;;;;;17.30;99.90;;;;;;4593015;19;19918;-31
2022/06/11 07:39:37;;;;;;;;;;;17.40;99.90;;;;;;4593133;19;20361;-32
2022/06/11 07:41:08;;;;;;;;;;;17.50;99.90;;;;;;4592505;19;19923;-32
2022/06/11 07:42:39;;;;;;;;;;;17.50;99.90;;;;;;4592691;19;19919;-32
2022/06/11 07:44:10;;;;;;;;;;;17.50;99.90;;;;;;4593062;19;19917;-32
2022/06/11 07:45:42;;;;;;;;;;;17.50;99.90;;;;;;4592593;19;19911;-32
2022/06/11 07:47:12;;;;;;;;;;;17.50;99.90;;;;;;4592075;19;19939;-31
2022/06/11 07:48:43;;;;;;;;;;;17.50;99.90;;;;;;4593062;19;20256;-31
2022/06/11 07:50:14;;;;;;;;;;;17.60;99.90;;;;;;4593461;19;19940;-31
2022/06/11 07:51:45;;;;;;;;;;;17.60;99.90;;;;;;4593542;19;20341;-31
2022/06/11 07:53:17;;;;;;;;;;;17.60;99.90;;;;;;4593981;19;19915;-31
2022/06/11 07:54:48;;;;;;;;;;;17.70;99.90;;;;;;4591822;19;19911;-32
2022/06/11 07:56:19;;;;;;;;;;;17.70;99.90;;;;;;4592751;19;20274;-32
2022/06/11 07:57:50;;;;;;;;;;;17.70;99.90;;;;;;4592458;19;19957;-31
2022/06/11 07:59:21;;;;;;;;;;;17.70;99.90;;;;;;4591917;19;19911;-33
2022/06/11 08:00:57;;;;;;;;;;;17.70;99.90;;;;;;4592812;19;19915;-32
2022/06/11 08:02:28;;;;;;;;;;;17.80;99.90;;;;;;4593446;19;19938;-32
2022/06/11 08:03:59;;;;;;;;;;;17.70;99.90;;;;;;4593489;19;19923;-33
2022/06/11 08:05:30;;;;;;;;;;;17.80;99.90;;;;;;4593505;19;19915;-33
2022/06/11 08:07:01;;;;;;;;;;;17.70;99.90;;;;;;4593067;19;20028;-33
2022/06/11 08:08:32;;;;;;;;;;;17.70;99.90;;;;;;4592992;19;19919;-32
2022/06/11 08:10:04;;;;;;;;;;;17.70;99.90;;;;;;4592374;19;19986;-32
2022/06/11 08:11:35;;;;;;;;;;;17.80;99.90;;;;;;4592622;19;20352;-31
2022/06/11 08:13:06;;;;;;;;;;;17.80;99.90;;;;;;4592588;19;19925;-32
2022/06/11 08:14:37;;;;;;;;;;;17.90;99.90;;;;;;4593370;19;19939;-32
2022/06/11 08:16:10;;;;;;;;;;;17.80;99.90;;;;;;4593807;19;19946;-31
2022/06/11 08:17:41;;;;;;;;;;;17.80;99.90;;;;;;4592732;19;19927;-32
2022/06/11 08:19:12;;;;;;;;;;;17.90;99.90;;;;;;4593025;19;20357;-32
2022/06/11 08:20:43;;;;;;;;;;;18.00;99.90;;;;;;4593461;19;19923;-33
2022/06/11 08:22:14;;;;;;;;;;;18.00;99.90;;;;;;4593050;19;19923;-32
2022/06/11 08:23:45;;;;;;;;;;;18.00;99.90;;;;;;4592871;19;19915;-31
2022/06/11 08:25:17;;;;;;;;;;;18.00;99.90;;;;;;4592763;19;19919;-31
2022/06/11 08:26:48;;;;;;;;;;;18.00;99.90;;;;;;4592742;19;20297;-32
2022/06/11 08:28:19;;;;;;;;;;;18.00;99.90;;;;;;4592545;19;19915;-32
2022/06/11 08:29:50;;;;;;;;;;;18.00;99.90;;;;;;4592491;19;19935;-32
2022/06/11 08:31:21;;;;;;;;;;;18.10;99.90;;;;;;4592947;19;19918;-32
2022/06/11 08:32:52;;;;;;;;;;;18.10;99.90;;;;;;4592846;19;20244;-32
2022/06/11 08:34:23;;;;;;;;;;;18.20;99.90;;;;;;4592583;19;19922;-33
2022/06/11 08:35:54;;;;;;;;;;;18.10;99.90;;;;;;4592698;19;20344;-31
2022/06/11 08:37:25;;;;;;;;;;;18.10;99.90;;;;;;4592946;19;19923;-31
2022/06/11 08:38:56;;;;;;;;;;;18.10;99.90;;;;;;4593059;19;19918;-32
2022/06/11 08:40:34;;;;;;;;;;;18.20;99.90;;;;;;4592426;19;19974;-32
2022/06/11 08:42:07;;;;;;;;;;;18.20;99.90;;;;;;4591385;19;20338;-31
2022/06/11 08:43:38;;;;;;;;;;;18.20;99.90;;;;;;4592049;19;19924;-32
2022/06/11 08:45:17;;;;;;;;;;;18.30;99.90;;;;;;4591419;19;19918;-31
2022/06/11 08:46:48;;;;;;;;;;;18.30;99.90;;;;;;4590879;19;19914;-31
2022/06/11 08:48:28;;;;;;;;;;;18.30;99.90;;;;;;4589880;19;20349;-32
2022/06/11 08:50:00;;;;;;;;;;;18.30;99.90;;;;;;4592259;19;19918;-32
2022/06/11 08:51:34;;;;;;;;;;;18.40;99.90;;;;;;4592875;19;19926;-32
2022/06/11 08:53:05;;;;;;;;;;;18.40;99.90;;;;;;4591829;19;20059;-32
2022/06/11 08:54:37;;;;;;;;;;;18.40;99.90;;;;;;4591086;19;20270;-31
2022/06/11 08:56:19;;;;;;;;;;;18.40;99.90;;;;;;4591324;19;19953;-31
2022/06/11 08:57:56;;;;;;;;;;;18.40;99.90;;;;;;4592505;19;19922;-32
2022/06/11 08:59:43;;;;;;;;;;;18.40;99.90;;;;;;4590518;19;20386;-32